createdAt,value
2023-04-20T00:01:16.013Z,8.00
2023-04-20T00:06:18.040Z,6.95
2023-04-20T00:11:19.580Z,5.50
2023-04-20T00:16:21.248Z,7.03
2023-04-20T00:21:24.257Z,8.50
2023-04-20T00:26:26.113Z,6.82
2023-04-20T00:31:28.673Z,6.88
2023-04-20T00:36:30.425Z,8.55
2023-04-20T00:41:33.438Z,6.45
2023-04-20T00:46:35.333Z,6.90
2023-04-20T00:51:39.810Z,7.88
2023-04-20T00:56:42.226Z,6.63
2023-04-20T01:01:43.786Z,7.20
2023-04-20T01:06:45.464Z,6.65
2023-04-20T01:11:47.045Z,9.38
2023-04-20T01:16:52.037Z,7.32
2023-04-20T01:21:53.592Z,8.10
2023-04-20T01:26:55.197Z,6.40
2023-04-20T01:31:56.769Z,7.88
2023-04-20T01:36:59.940Z,6.53
2023-04-20T01:42:01.984Z,5.60
2023-04-20T01:47:03.770Z,6.30
2023-04-20T01:52:05.585Z,7.40
2023-04-20T01:57:07.250Z,6.47
2023-04-20T02:02:08.989Z,8.25
2023-04-20T02:07:10.561Z,5.90
2023-04-20T02:12:13.556Z,7.68
2023-04-20T02:17:15.318Z,9.93
2023-04-20T02:22:16.942Z,7.95
2023-04-20T02:27:18.481Z,6.32
2023-04-20T02:32:20.072Z,6.32
2023-04-20T02:37:24.210Z,9.13
2023-04-20T02:42:25.802Z,7.75
2023-04-20T02:47:28.736Z,10.43
2023-04-20T02:52:30.597Z,6.68
2023-04-20T02:57:34.894Z,7.28
2023-04-20T03:02:37.548Z,8.25
2023-04-20T03:07:39.639Z,8.00
2023-04-20T03:12:42.589Z,7.90
2023-04-20T03:18:03.915Z,5.97
2023-04-20T03:23:06.148Z,8.38
2023-04-20T03:28:08.171Z,7.32
2023-04-20T03:33:11.878Z,11.77
2023-04-20T03:38:13.571Z,11.88
2023-04-20T03:43:15.079Z,9.93
2023-04-20T03:48:18.226Z,7.22
2023-04-20T03:53:19.761Z,11.38
2023-04-20T03:58:21.813Z,11.15
2023-04-20T04:03:41.637Z,7.88
2023-04-20T04:08:45.159Z,9.35
2023-04-20T04:13:46.760Z,9.88
2023-04-20T04:18:48.535Z,7.90
2023-04-20T04:23:50.904Z,7.78
2023-04-20T04:29:04.536Z,9.95
2023-04-20T04:34:07.250Z,6.97
2023-04-20T04:39:15.355Z,11.20
2023-04-20T04:44:26.088Z,11.82
2023-04-20T04:49:29.312Z,11.88
2023-04-20T04:54:30.997Z,14.80
2023-04-20T04:59:32.620Z,12.32
2023-04-20T05:04:34.261Z,10.57
2023-04-20T05:09:36.898Z,13.95
2023-04-20T05:14:38.691Z,10.52
2023-04-20T05:19:40.171Z,7.53
2023-04-20T05:24:42.545Z,8.48
2023-04-20T05:29:44.107Z,8.35
2023-04-20T05:34:46.107Z,7.85
2023-04-20T05:39:47.728Z,7.72
2023-04-20T05:44:49.313Z,10.85
2023-04-20T05:49:51.192Z,7.65
2023-04-20T05:54:52.852Z,10.75
2023-04-20T05:59:56.035Z,10.48
2023-04-20T06:05:03.444Z,6.55
2023-04-20T06:10:06.481Z,7.80
2023-04-20T06:15:10.730Z,8.43
2023-04-20T06:20:15.778Z,7.97
2023-04-20T06:25:17.371Z,8.70
2023-04-20T06:30:18.876Z,8.25
2023-04-20T06:35:20.541Z,10.38
2023-04-20T06:40:27.945Z,8.13
2023-04-20T06:45:29.775Z,9.98
2023-04-20T06:50:32.183Z,9.05
2023-04-20T06:55:39.155Z,8.20
2023-04-20T07:00:40.715Z,8.55
2023-04-20T07:05:42.226Z,8.90
2023-04-20T07:10:43.797Z,9.40
2023-04-20T07:15:48.022Z,11.45
2023-04-20T07:20:49.552Z,9.20
2023-04-20T07:25:52.173Z,9.35
2023-04-20T07:30:53.706Z,8.57
2023-04-20T07:35:55.212Z,8.70
2023-04-20T07:40:56.766Z,9.27
2023-04-20T07:45:58.364Z,9.55
2023-04-20T07:50:59.919Z,8.32
2023-04-20T07:56:01.453Z,9.43
2023-04-20T08:01:03.008Z,8.93
2023-04-20T08:06:04.634Z,9.48
2023-04-20T08:11:08.096Z,10.90
2023-04-20T08:16:09.838Z,8.18
2023-04-20T08:21:11.610Z,10.20
2023-04-20T08:26:16.435Z,10.65
2023-04-20T08:31:18.032Z,8.85
2023-04-20T08:36:19.821Z,8.60
2023-04-20T08:41:27.207Z,10.93
2023-04-20T08:46:28.939Z,10.70
2023-04-20T08:51:32.692Z,7.88
2023-04-20T08:56:39.628Z,10.82
2023-04-20T09:01:42.555Z,10.07
2023-04-20T09:06:45.932Z,8.10
2023-04-20T09:11:48.112Z,9.25
2023-04-20T09:17:02.089Z,7.60
2023-04-20T09:22:05.200Z,8.57
2023-04-20T09:27:17.870Z,8.95
2023-04-20T09:32:26.651Z,10.13
2023-04-20T09:37:28.263Z,8.50
2023-04-20T09:42:32.742Z,8.48
2023-04-20T09:47:36.812Z,8.95
2023-04-20T09:52:38.880Z,8.40
2023-04-20T09:57:41.084Z,9.07
2023-04-20T10:02:47.187Z,9.15
2023-04-20T10:08:00.121Z,12.48
2023-04-20T10:13:02.173Z,8.82
2023-04-20T10:18:17.576Z,11.02
2023-04-20T10:23:20.095Z,9.68
2023-04-20T10:28:22.008Z,9.35
2023-04-20T10:33:23.505Z,10.75
2023-04-20T10:38:35.363Z,9.90
2023-04-20T10:43:42.069Z,9.38
2023-04-20T10:48:57.881Z,9.68
2023-04-20T10:54:00.080Z,10.02
2023-04-20T10:59:09.403Z,8.90
2023-04-20T11:04:16.968Z,9.88
2023-04-20T11:09:22.856Z,11.07
2023-04-20T11:14:24.387Z,7.90
2023-04-20T11:19:34.092Z,10.70
2023-04-20T11:24:36.096Z,8.25
2023-04-20T11:29:39.501Z,10.20
2023-04-20T11:34:41.310Z,7.22
2023-04-20T11:39:43.018Z,9.75
2023-04-20T11:44:44.492Z,7.80
2023-04-20T11:49:46.097Z,8.30
2023-04-20T11:54:47.677Z,8.05
2023-04-20T11:59:49.362Z,10.10
2023-04-20T12:04:50.967Z,12.20
2023-04-20T12:09:52.605Z,8.50
2023-04-20T12:14:57.340Z,8.18
2023-04-20T12:20:39.194Z,10.23
2023-04-20T12:25:41.098Z,10.55
2023-04-20T12:30:42.733Z,9.93
2023-04-20T12:35:45.274Z,9.77
2023-04-20T12:40:46.804Z,9.85
2023-04-20T12:45:48.558Z,9.57
2023-04-20T12:50:51.104Z,10.50
2023-04-20T12:56:00.458Z,8.93
2023-04-20T13:01:03.665Z,10.02
2023-04-20T13:06:05.881Z,9.10
2023-04-20T13:11:07.492Z,8.95
2023-04-20T13:16:09.142Z,7.80
2023-04-20T13:21:15.407Z,8.57
2023-04-20T13:26:16.950Z,6.53
2023-04-20T13:31:18.503Z,7.57
2023-04-20T13:36:21.607Z,10.02
2023-04-20T13:41:25.787Z,7.95
2023-04-20T13:46:28.323Z,10.23
2023-04-20T13:51:29.969Z,7.93
2023-04-20T13:56:34.340Z,8.30
2023-04-20T14:01:38.928Z,7.07
2023-04-20T14:06:40.480Z,9.35
2023-04-20T14:11:46.212Z,8.52
2023-04-20T14:16:48.924Z,9.68
2023-04-20T14:21:51.144Z,9.35
2023-04-20T14:26:52.770Z,9.80
2023-04-20T14:31:54.385Z,11.93
2023-04-20T14:36:56.067Z,11.05
2023-04-20T14:41:57.654Z,9.77
2023-04-20T14:46:59.237Z,10.13
2023-04-20T14:52:00.834Z,10.73
2023-04-20T14:57:03.741Z,10.93
2023-04-20T15:02:05.898Z,10.43
2023-04-20T15:07:07.625Z,10.75
2023-04-20T15:12:09.167Z,9.07
2023-04-20T15:17:11.663Z,11.70
2023-04-20T15:22:13.651Z,10.93
2023-04-20T15:27:17.069Z,10.75
2023-04-20T15:32:18.736Z,9.63
2023-04-20T15:37:20.457Z,9.13
2023-04-20T15:42:22.379Z,10.77
2023-04-20T15:47:23.955Z,12.48
2023-04-20T15:52:25.644Z,8.65
2023-04-20T15:57:29.355Z,10.68
2023-04-20T16:02:31.251Z,10.98
2023-04-20T16:07:33.504Z,13.32
2023-04-20T16:12:35.001Z,13.52
2023-04-20T16:17:36.544Z,10.27
2023-04-20T16:22:38.399Z,12.07
2023-04-20T16:27:45.457Z,12.02
2023-04-20T16:32:47.057Z,12.68
2023-04-20T16:37:48.641Z,13.50
2023-04-20T16:42:50.163Z,13.82
2023-04-20T16:47:51.730Z,15.82
2023-04-20T16:52:53.465Z,20.27
2023-04-20T16:58:00.281Z,18.80
2023-04-20T17:03:06.737Z,14.77
2023-04-20T17:08:08.673Z,16.23
2023-04-20T17:13:10.429Z,16.17
2023-04-20T17:18:21.843Z,13.65
2023-04-20T17:23:34.058Z,13.95
2023-04-20T17:28:37.970Z,12.50
2023-04-20T17:33:39.628Z,15.52
2023-04-20T17:38:45.647Z,15.70
2023-04-20T17:43:47.246Z,14.82
2023-04-20T17:48:51.533Z,15.40
2023-04-20T17:53:57.537Z,13.68
2023-04-20T17:58:59.080Z,15.98
2023-04-20T18:04:27.853Z,18.02
2023-04-20T18:09:29.519Z,15.90
2023-04-20T18:14:31.053Z,16.92
2023-04-20T18:19:32.806Z,17.23
2023-04-20T18:24:34.462Z,17.80
2023-04-20T18:29:35.995Z,15.55
2023-04-20T18:34:37.636Z,20.55
2023-04-20T18:39:39.480Z,16.10
2023-04-20T18:44:41.150Z,17.52
2023-04-20T18:49:42.862Z,18.90
2023-04-20T18:54:44.461Z,22.02
2023-04-20T18:59:45.963Z,19.25
2023-04-20T19:04:50.830Z,20.02
2023-04-20T19:09:57.590Z,18.00
2023-04-20T19:15:04.526Z,19.15
2023-04-20T19:20:10.218Z,18.08
2023-04-20T19:25:11.864Z,19.40
2023-04-20T19:30:13.486Z,18.45
2023-04-20T19:35:15.077Z,23.30
2023-04-20T19:40:24.045Z,23.20
2023-04-20T19:45:25.661Z,19.87
2023-04-20T19:50:27.700Z,21.08
2023-04-20T19:55:39.733Z,20.38
2023-04-20T20:00:41.377Z,23.02
2023-04-20T20:05:43.604Z,22.88
2023-04-20T20:10:45.241Z,21.00
2023-04-20T20:15:46.770Z,24.38
2023-04-20T20:20:51.693Z,22.55
2023-04-20T20:26:03.654Z,21.08
2023-04-20T20:31:05.446Z,20.50
2023-04-20T20:36:07.265Z,20.75
2023-04-20T20:41:16.606Z,21.42
2023-04-20T20:46:27.929Z,24.05
2023-04-20T20:51:29.771Z,24.67
2023-04-20T20:56:33.753Z,21.55
2023-04-20T21:01:35.349Z,23.33
2023-04-20T21:06:36.893Z,23.05
2023-04-20T21:11:38.496Z,23.30
2023-04-20T21:16:40.626Z,24.60
2023-04-20T21:21:45.690Z,24.25
2023-04-20T21:26:47.246Z,24.10
2023-04-20T21:31:52.127Z,27.73
2023-04-20T21:36:53.790Z,26.48
2023-04-20T21:41:55.700Z,26.25
2023-04-20T21:46:57.301Z,27.25
2023-04-20T21:51:58.839Z,25.70
2023-04-20T21:57:10.094Z,25.00
2023-04-20T22:02:11.720Z,33.45
2023-04-20T22:07:14.600Z,27.92
2023-04-20T22:12:32.323Z,27.13
2023-04-20T22:17:46.324Z,26.13
2023-04-20T22:22:58.150Z,27.63
2023-04-20T22:27:59.675Z,28.75
2023-04-20T22:33:09.870Z,25.88
2023-04-20T22:38:11.486Z,22.75
2023-04-20T22:43:21.785Z,26.17
2023-04-20T22:48:28.441Z,25.20
2023-04-20T22:53:33.977Z,25.73
2023-04-20T22:58:35.884Z,26.98
2023-04-20T23:03:37.840Z,24.50
2023-04-20T23:08:39.820Z,20.90
2023-04-20T23:14:03.994Z,22.38
2023-04-20T23:19:05.637Z,23.60
2023-04-20T23:24:15.775Z,21.02
2023-04-20T23:29:17.475Z,23.50
2023-04-20T23:34:19.256Z,21.60
2023-04-20T23:39:21.858Z,25.48
2023-04-20T23:44:23.440Z,25.10
2023-04-20T23:49:24.951Z,23.40
2023-04-20T23:54:26.857Z,24.67
2023-04-20T23:59:31.212Z,22.35
